Time;durP1;ratioP1;P1;durP2;ratioP2;P2;SDS_P1;SDS_P2;PMS_P1;PMS_P2;Temp;Humidity;BMP_temperature;BMP_pressure;BME280_temperature;BME280_humidity;BME280_pressure;Samples;Min_cycle;Max_cycle;Signal;HPM_P1;HPM_P2
2023/09/25 00:01:33;;;;;;;4.90;0.88;;;15.40;99.90;;;;;;5024569;28;20045;-54
2023/09/25 00:04:01;;;;;;;5.15;0.88;;;15.40;99.90;;;;;;5026655;28;20049;-55
2023/09/25 00:06:29;;;;;;;5.47;1.00;;;15.40;99.90;;;;;;5028446;28;20053;-55
2023/09/25 00:08:56;;;;;;;3.40;0.95;;;15.40;99.90;;;;;;5011132;28;20062;-55
2023/09/25 00:11:24;;;;;;;8.82;0.80;;;15.30;99.90;;;;;;5023436;28;20068;-54
2023/09/25 00:13:52;;;;;;;4.40;1.13;;;15.30;99.90;;;;;;5028982;28;20045;-55
2023/09/25 00:16:19;;;;;;;5.55;1.00;;;15.30;99.90;;;;;;5029714;28;20050;-55
2023/09/25 00:18:47;;;;;;;5.57;0.85;;;15.30;99.90;;;;;;5017430;28;20081;-55
2023/09/25 00:21:15;;;;;;;4.40;0.90;;;15.30;99.90;;;;;;5025350;28;20504;-54
2023/09/25 00:23:43;;;;;;;5.13;1.13;;;15.30;99.90;;;;;;5028077;28;20521;-59
2023/09/25 00:26:13;;;;;;;5.15;1.25;;;15.30;99.90;;;;;;5019658;28;20045;-55
2023/09/25 00:28:47;;;;;;;4.75;1.23;;;15.20;99.90;;;;;;5027959;28;20073;-55
2023/09/25 00:31:16;;;;;;;6.97;1.20;;;15.20;99.90;;;;;;5003722;28;20053;-55
2023/09/25 00:33:45;;;;;;;3.08;1.48;;;15.10;99.90;;;;;;5022164;28;20054;-56
2023/09/25 00:36:14;;;;;;;6.82;1.33;;;15.10;99.90;;;;;;5027812;28;20336;-55
2023/09/25 00:38:41;;;;;;;7.05;1.60;;;15.10;99.90;;;;;;5010424;28;20054;-54
2023/09/25 00:41:09;;;;;;;7.93;1.70;;;15.10;99.90;;;;;;5021739;28;20041;-55
2023/09/25 00:43:37;;;;;;;8.10;1.75;;;15.10;99.90;;;;;;5027214;28;20042;-55
2023/09/25 00:46:06;;;;;;;10.55;1.27;;;15.10;99.90;;;;;;5024001;28;20045;-55
2023/09/25 00:48:34;;;;;;;5.68;1.38;;;15.10;99.90;;;;;;5007479;28;20046;-55
2023/09/25 00:51:04;;;;;;;10.43;1.20;;;15.10;99.90;;;;;;5017849;28;20054;-55
2023/09/25 00:53:33;;;;;;;;;;;15.10;99.90;;;;;;5027715;28;20041;-55
2023/09/25 00:56:01;;;;;;;10.85;1.70;;;15.20;99.90;;;;;;5019349;28;20281;-56
2023/09/25 00:58:29;;;;;;;9.02;1.67;;;15.10;99.90;;;;;;5014707;28;20050;-55
2023/09/25 01:00:58;;;;;;;13.25;1.58;;;15.10;99.90;;;;;;5017312;28;20501;-56
2023/09/25 01:03:26;;;;;;;10.85;1.65;;;15.10;99.90;;;;;;5024680;28;20500;-55
2023/09/25 01:05:56;;;;;;;11.87;2.20;;;15.00;99.90;;;;;;5005158;28;20046;-55
2023/09/25 01:08:23;;;;;;;11.50;1.60;;;15.00;99.90;;;;;;5027810;28;20041;-55
2023/09/25 01:10:51;;;;;;;13.45;1.85;;;14.90;99.90;;;;;;5028029;28;20049;-57
2023/09/25 01:13:19;;;;;;;6.50;1.23;;;14.80;99.90;;;;;;5029102;28;20049;-55
2023/09/25 01:15:47;;;;;;;12.30;1.88;;;14.70;99.90;;;;;;5028534;28;20053;-55
2023/09/25 01:18:14;;;;;;;8.07;1.50;;;14.60;99.90;;;;;;5028056;28;20042;-56
2023/09/25 01:20:45;;;;;;;10.40;1.80;;;14.60;99.90;;;;;;5029232;28;20041;-56
2023/09/25 01:23:13;;;;;;;11.43;1.70;;;14.50;99.90;;;;;;5029129;28;20566;-57
2023/09/25 01:25:40;;;;;;;13.88;1.65;;;14.40;99.90;;;;;;5032323;28;20121;-56
2023/09/25 01:28:09;;;;;;;8.23;2.05;;;14.40;99.90;;;;;;5009142;28;20058;-57
2023/09/25 01:30:37;;;;;;;16.55;1.90;;;14.30;99.90;;;;;;5011460;28;20042;-55
2023/09/25 01:33:04;;;;;;;17.20;2.15;;;14.30;99.90;;;;;;5029753;28;20042;-55
2023/09/25 01:35:32;;;;;;;11.93;1.98;;;14.20;99.90;;;;;;5029682;28;20054;-55
2023/09/25 01:38:00;;;;;;;14.32;2.38;;;14.20;99.90;;;;;;5030901;28;20054;-55
2023/09/25 01:40:30;;;;;;;10.93;2.35;;;14.10;99.90;;;;;;5035779;28;20045;-55
2023/09/25 01:42:59;;;;;;;11.52;2.15;;;14.10;99.90;;;;;;5022515;28;20049;-55
2023/09/25 01:45:27;;;;;;;14.17;2.33;;;14.00;99.90;;;;;;5029433;28;20743;-56
2023/09/25 01:47:55;;;;;;;12.88;2.55;;;14.00;99.90;;;;;;5044834;28;20049;-56
2023/09/25 01:50:25;;;;;;;10.48;1.80;;;14.00;99.90;;;;;;5012412;28;20042;-55
2023/09/25 01:53:00;;;;;;;17.85;2.10;;;14.00;99.90;;;;;;5014857;28;20393;-55
2023/09/25 01:55:35;;;;;;;9.80;2.22;;;14.00;99.90;;;;;;5033839;28;20037;-56
2023/09/25 01:58:04;;;;;;;16.10;2.10;;;14.00;99.90;;;;;;5025497;28;20141;-55
2023/09/25 02:00:31;;;;;;;15.00;2.20;;;14.00;99.90;;;;;;5030629;28;20448;-55
2023/09/25 02:02:59;;;;;;;12.68;1.88;;;14.00;99.90;;;;;;5031089;28;20061;-55
2023/09/25 02:05:27;;;;;;;13.18;2.38;;;14.00;99.90;;;;;;5016330;28;20477;-55
2023/09/25 02:07:55;;;;;;;18.42;2.28;;;14.00;99.90;;;;;;5020623;28;20053;-55
2023/09/25 02:10:23;;;;;;;10.77;2.22;;;13.90;99.90;;;;;;5011956;28;20042;-55
2023/09/25 02:12:50;;;;;;;14.82;2.05;;;13.90;99.90;;;;;;5026838;28;20619;-55
2023/09/25 02:15:18;;;;;;;17.08;2.38;;;13.90;99.90;;;;;;5029659;28;20477;-55
2023/09/25 02:17:46;;;;;;;13.40;2.03;;;13.80;99.90;;;;;;5062887;28;20049;-55
2023/09/25 02:22:42;;;;;;;10.75;1.83;;;13.80;99.90;;;;;;5029462;28;20052;-55
2023/09/25 02:25:09;;;;;;;7.30;1.73;;;13.70;99.90;;;;;;5029099;28;20049;-55
2023/09/25 02:27:39;;;;;;;8.65;1.70;;;13.70;99.90;;;;;;5030925;28;20057;-55
2023/09/25 02:30:09;;;;;;;14.57;2.40;;;13.60;99.90;;;;;;5031390;28;20053;-55
2023/09/25 02:32:37;;;;;;;12.43;2.08;;;13.70;99.90;;;;;;5030589;28;20048;-55
2023/09/25 02:35:07;;;;;;;8.82;2.00;;;13.60;99.90;;;;;;5027618;28;20048;-55
2023/09/25 02:37:36;;;;;;;9.68;1.85;;;13.60;99.90;;;;;;5026076;28;20520;-55
2023/09/25 02:40:06;;;;;;;10.00;1.90;;;13.60;99.90;;;;;;5030137;28;20136;-55
2023/09/25 02:42:34;;;;;;;22.98;2.45;;;13.50;99.90;;;;;;5029044;28;20064;-55
2023/09/25 02:45:02;;;;;;;13.45;1.83;;;13.50;99.90;;;;;;5031457;28;20057;-55
2023/09/25 02:47:30;;;;;;;16.58;2.33;;;13.50;99.90;;;;;;5026996;28;20494;-56
2023/09/25 02:50:00;;;;;;;11.35;2.33;;;13.50;99.90;;;;;;5031149;28;20520;-55
2023/09/25 02:52:28;;;;;;;12.18;2.13;;;13.40;99.90;;;;;;5030913;28;20057;-55
2023/09/25 02:54:56;;;;;;;12.20;2.35;;;13.40;99.90;;;;;;5031506;28;20053;-55
2023/09/25 02:57:24;;;;;;;13.35;2.17;;;13.40;99.90;;;;;;5032073;28;20049;-55
2023/09/25 02:59:52;;;;;;;13.38;2.45;;;13.40;99.90;;;;;;5031323;28;20037;-55
2023/09/25 03:02:21;;;;;;;12.75;2.20;;;13.40;99.90;;;;;;5030991;28;20049;-55
2023/09/25 03:04:49;;;;;;;17.17;2.50;;;13.30;99.90;;;;;;5030297;28;20045;-56
2023/09/25 03:07:17;;;;;;;21.70;3.03;;;13.30;99.90;;;;;;5032976;28;20053;-56
2023/09/25 03:09:44;;;;;;;14.82;2.30;;;13.20;99.90;;;;;;5035113;28;20045;-55
2023/09/25 03:12:12;;;;;;;15.43;3.03;;;13.20;99.90;;;;;;5035061;28;20049;-55
2023/09/25 03:14:40;;;;;;;11.45;1.85;;;13.20;99.90;;;;;;5034901;28;20429;-55
2023/09/25 03:17:08;;;;;;;12.98;3.28;;;13.10;99.90;;;;;;5035115;28;20049;-56
2023/09/25 03:19:38;;;;;;;13.63;2.33;;;13.10;99.90;;;;;;5034988;28;20037;-56
2023/09/25 03:22:06;;;;;;;17.60;2.17;;;13.00;99.90;;;;;;5029120;28;20049;-56
2023/09/25 03:24:35;;;;;;;15.35;2.53;;;13.00;99.90;;;;;;5026839;28;20041;-56
2023/09/25 03:27:02;;;;;;;16.53;2.50;;;12.90;99.90;;;;;;5033778;28;20401;-56
2023/09/25 03:29:30;;;;;;;9.77;2.03;;;12.90;99.90;;;;;;5034009;28;20290;-56
2023/09/25 03:31:58;;;;;;;8.30;1.67;;;12.90;99.90;;;;;;5033293;28;20058;-55
2023/09/25 03:34:28;;;;;;;13.93;2.25;;;12.80;99.90;;;;;;5033642;28;20045;-55
2023/09/25 03:36:56;;;;;;;15.43;2.33;;;12.80;99.90;;;;;;5033211;28;20068;-55
2023/09/25 03:39:23;;;;;;;15.48;2.13;;;12.80;99.90;;;;;;5034656;28;20038;-55
2023/09/25 03:41:51;;;;;;;12.43;2.15;;;12.80;99.90;;;;;;5029619;28;20069;-55
2023/09/25 03:44:18;;;;;;;17.52;2.85;;;12.80;99.90;;;;;;5025244;28;20053;-55
2023/09/25 03:46:46;;;;;;;17.95;2.33;;;12.80;99.90;;;;;;5029923;28;20053;-56
2023/09/25 03:49:14;;;;;;;16.30;1.90;;;12.80;99.90;;;;;;5032989;28;20049;-55
2023/09/25 03:51:42;;;;;;;16.77;2.08;;;12.80;99.90;;;;;;5034246;28;20048;-55
2023/09/25 03:54:10;;;;;;;13.13;2.45;;;12.80;99.90;;;;;;5034116;28;20046;-55
2023/09/25 03:56:38;;;;;;;16.30;2.78;;;12.80;99.90;;;;;;5033015;28;20046;-55
2023/09/25 03:59:06;;;;;;;24.48;2.80;;;12.80;99.90;;;;;;5032708;28;20049;-55
2023/09/25 04:01:34;;;;;;;13.95;2.10;;;12.80;99.90;;;;;;5034014;28;20056;-55
2023/09/25 04:04:02;;;;;;;16.02;2.97;;;12.80;99.90;;;;;;5032609;28;20046;-55
2023/09/25 04:06:29;;;;;;;15.90;2.25;;;12.80;99.90;;;;;;5032932;28;20050;-55
2023/09/25 04:08:57;;;;;;;14.38;2.50;;;12.70;99.90;;;;;;5033361;28;20048;-55
2023/09/25 04:11:25;;;;;;;18.88;2.88;;;12.80;99.90;;;;;;5033908;28;20057;-56
2023/09/25 04:13:53;;;;;;;10.57;2.13;;;12.80;99.90;;;;;;5033769;28;20049;-55
2023/09/25 04:16:22;;;;;;;13.07;2.10;;;12.90;99.90;;;;;;5033260;28;20052;-56
2023/09/25 04:18:50;;;;;;;14.60;2.13;;;12.90;99.90;;;;;;5033351;28;20049;-55
2023/09/25 04:21:18;;;;;;;17.40;2.53;;;12.90;99.90;;;;;;5033505;28;20317;-56
2023/09/25 04:23:45;;;;;;;16.88;2.40;;;12.90;99.90;;;;;;5033984;28;20424;-55
2023/09/25 04:26:13;;;;;;;11.40;2.13;;;12.90;99.90;;;;;;5033009;28;20048;-55
2023/09/25 04:28:41;;;;;;;13.05;2.58;;;12.90;99.90;;;;;;5032453;28;20133;-55
2023/09/25 04:31:12;;;;;;;17.13;2.67;;;12.80;99.90;;;;;;5033686;28;20037;-56
2023/09/25 04:33:40;;;;;;;14.77;2.45;;;12.80;99.90;;;;;;5038990;28;20041;-55
2023/09/25 04:36:10;;;;;;;14.43;2.65;;;12.80;99.90;;;;;;5041074;28;20064;-56
2023/09/25 04:38:39;;;;;;;18.13;3.40;;;12.80;99.90;;;;;;5033523;28;20390;-55
2023/09/25 04:41:06;;;;;;;17.30;2.47;;;12.70;99.90;;;;;;5032420;28;20137;-55
2023/09/25 04:43:34;;;;;;;19.63;2.88;;;12.70;99.90;;;;;;5032808;28;20045;-55
2023/09/25 04:46:01;;;;;;;14.65;2.78;;;12.70;99.90;;;;;;5033272;28;20048;-55
2023/09/25 04:48:29;;;;;;;20.30;3.38;;;12.70;99.90;;;;;;5015881;28;20061;-55
2023/09/25 04:50:57;;;;;;;17.27;2.50;;;12.70;99.90;;;;;;5011842;28;20054;-55
2023/09/25 04:53:25;;;;;;;14.93;2.75;;;12.60;99.90;;;;;;5025497;28;20053;-55
2023/09/25 04:55:53;;;;;;;23.27;2.97;;;12.60;99.90;;;;;;5034973;28;20046;-55
2023/09/25 04:58:21;;;;;;;15.13;2.70;;;12.60;99.90;;;;;;5029278;28;20489;-55
2023/09/25 05:00:49;;;;;;;17.60;2.70;;;12.60;99.90;;;;;;5028549;28;20052;-55
2023/09/25 05:03:17;;;;;;;15.10;2.55;;;12.60;99.90;;;;;;5020710;28;20033;-56
2023/09/25 05:05:44;;;;;;;16.10;2.95;;;12.60;99.90;;;;;;5012315;28;20044;-55
2023/09/25 05:08:12;;;;;;;18.73;3.00;;;12.60;99.90;;;;;;5016813;28;20045;-55
2023/09/25 05:10:41;;;;;;;12.50;2.70;;;12.60;99.90;;;;;;5013350;28;20041;-55
2023/09/25 05:13:09;;;;;;;20.33;2.85;;;12.60;99.90;;;;;;5024688;28;20050;-56
2023/09/25 05:15:37;;;;;;;21.15;3.03;;;12.60;99.90;;;;;;5028153;28;20376;-56
2023/09/25 05:18:05;;;;;;;18.63;2.60;;;12.60;99.90;;;;;;5025534;28;20041;-56
2023/09/25 05:20:34;;;;;;;14.95;2.70;;;12.60;99.90;;;;;;5026635;28;20071;-56
2023/09/25 05:23:01;;;;;;;17.80;3.40;;;12.70;99.90;;;;;;5022636;28;20227;-56
2023/09/25 05:25:29;;;;;;;20.30;3.05;;;12.70;99.90;;;;;;5022958;28;20518;-57
2023/09/25 05:27:57;;;;;;;16.02;2.60;;;12.70;99.90;;;;;;5033711;28;20041;-56
2023/09/25 05:30:25;;;;;;;13.95;2.63;;;12.70;99.90;;;;;;5047332;28;20049;-57
2023/09/25 05:32:53;;;;;;;32.47;3.60;;;12.60;99.90;;;;;;5028683;28;20053;-56
2023/09/25 05:35:21;;;;;;;19.52;2.70;;;12.60;99.90;;;;;;5025341;28;20041;-56
2023/09/25 05:37:49;;;;;;;20.65;3.05;;;12.60;99.90;;;;;;5028925;28;20504;-56
2023/09/25 05:40:18;;;;;;;15.68;2.42;;;12.50;99.90;;;;;;5023068;28;20405;-57
2023/09/25 05:42:47;;;;;;;17.25;2.97;;;12.40;99.90;;;;;;5012754;28;20048;-57
2023/09/25 05:45:16;;;;;;;23.63;3.90;;;12.30;99.90;;;;;;5025495;28;20397;-57
2023/09/25 05:47:44;;;;;;;15.20;2.65;;;12.30;99.90;;;;;;5025497;28;20394;-56
2023/09/25 05:50:13;;;;;;;25.95;3.58;;;12.30;99.90;;;;;;5025454;28;20041;-57
2023/09/25 05:52:41;;;;;;;17.30;2.63;;;12.20;99.90;;;;;;5024937;28;20061;-58
2023/09/25 05:55:10;;;;;;;17.80;3.03;;;12.10;99.90;;;;;;5012974;28;20045;-57
2023/09/25 05:57:38;;;;;;;16.08;2.72;;;12.20;99.90;;;;;;5012370;28;20054;-57
2023/09/25 06:00:13;;;;;;;23.40;2.78;;;12.10;99.90;;;;;;5028969;28;20048;-57
2023/09/25 06:02:43;;;;;;;19.15;2.80;;;12.10;99.90;;;;;;5024909;28;20343;-56
2023/09/25 06:05:15;;;;;;;17.00;2.92;;;12.10;99.90;;;;;;5025401;28;20050;-56
2023/09/25 06:07:43;;;;;;;19.08;3.10;;;12.20;99.90;;;;;;5027958;28;20046;-57
2023/09/25 06:10:11;;;;;;;21.10;3.35;;;12.20;99.90;;;;;;5012758;28;20046;-56
2023/09/25 06:12:39;;;;;;;16.10;2.70;;;12.20;99.90;;;;;;5018478;28;20041;-56
2023/09/25 06:15:10;;;;;;;19.10;3.25;;;12.20;99.90;;;;;;5022979;28;20041;-56
2023/09/25 06:17:39;;;;;;;19.27;3.38;;;12.20;99.90;;;;;;5007608;28;20401;-56
2023/09/25 06:20:20;;;;;;;17.90;2.85;;;12.20;99.90;;;;;;5021888;28;20053;-56
2023/09/25 06:22:48;;;;;;;15.90;3.03;;;12.20;99.90;;;;;;5025996;28;20225;-56
2023/09/25 06:25:19;;;;;;;24.08;2.85;;;12.20;99.90;;;;;;5008753;28;20053;-56
2023/09/25 06:27:48;;;;;;;17.52;3.67;;;12.30;99.90;;;;;;5017517;28;20064;-56
2023/09/25 06:30:18;;;;;;;16.45;3.47;;;12.30;99.90;;;;;;5027145;28;20060;-56
2023/09/25 06:32:46;;;;;;;24.25;2.90;;;12.30;99.90;;;;;;5018277;28;20046;-56
2023/09/25 06:35:14;;;;;;;25.58;3.22;;;12.30;99.90;;;;;;5024312;28;20046;-56
2023/09/25 06:37:42;;;;;;;20.05;3.28;;;12.30;99.90;;;;;;5023190;28;20045;-56
2023/09/25 06:40:10;;;;;;;13.75;2.67;;;12.30;99.90;;;;;;5042187;28;20056;-57
2023/09/25 06:42:39;;;;;;;23.45;3.00;;;12.40;99.90;;;;;;5038568;28;20056;-56
2023/09/25 06:45:08;;;;;;;21.25;3.33;;;12.40;99.90;;;;;;5012136;28;20535;-56
2023/09/25 06:47:37;;;;;;;14.10;3.60;;;12.40;99.90;;;;;;5027347;28;20045;-56
2023/09/25 06:50:05;;;;;;;16.90;3.15;;;12.40;99.90;;;;;;5027690;28;20041;-56
2023/09/25 06:52:33;;;;;;;17.45;3.10;;;12.40;99.90;;;;;;5027199;28;20054;-56
2023/09/25 06:55:01;;;;;;;18.23;3.67;;;12.40;99.90;;;;;;5027885;28;20052;-56
2023/09/25 06:57:29;;;;;;;22.23;3.38;;;12.40;99.90;;;;;;5027056;28;20045;-57
2023/09/25 06:59:56;;;;;;;24.63;4.03;;;12.50;99.90;;;;;;5004890;28;20049;-56
2023/09/25 07:02:25;;;;;;;17.52;3.60;;;12.50;99.90;;;;;;5016784;28;20520;-56
2023/09/25 07:04:53;;;;;;;15.30;3.30;;;12.60;99.90;;;;;;5024776;28;20404;-56
2023/09/25 07:07:21;;;;;;;33.60;4.85;;;12.60;99.90;;;;;;5026134;28;20060;-56
2023/09/25 07:09:48;;;;;;;17.15;3.45;;;12.60;99.90;;;;;;5024579;28;20068;-56
2023/09/25 07:12:18;;;;;;;19.30;3.45;;;12.70;99.90;;;;;;5037181;28;20063;-56
2023/09/25 07:14:58;;;;;;;20.27;3.60;;;12.70;99.90;;;;;;5015668;28;20049;-56
2023/09/25 07:17:27;;;;;;;11.75;3.58;;;12.80;99.90;;;;;;5008554;28;20096;-56
2023/09/25 07:19:56;;;;;;;19.15;4.45;;;12.80;99.90;;;;;;5014259;28;20064;-56
2023/09/25 07:22:27;;;;;;;20.73;3.60;;;12.90;99.90;;;;;;5017802;28;20053;-55
2023/09/25 07:24:56;;;;;;;22.13;4.03;;;12.90;99.90;;;;;;5024298;28;20057;-56
2023/09/25 07:27:23;;;;;;;22.92;4.00;;;13.00;99.90;;;;;;5021184;28;20056;-56
2023/09/25 07:29:51;;;;;;;27.50;3.80;;;13.00;99.90;;;;;;5010027;28;20057;-56
2023/09/25 07:32:19;;;;;;;20.65;3.65;;;13.10;99.90;;;;;;5019588;28;20056;-56
2023/09/25 07:34:48;;;;;;;14.60;3.70;;;13.10;99.90;;;;;;5025456;28;20735;-56
2023/09/25 07:37:17;;;;;;;16.98;3.67;;;13.20;99.90;;;;;;5006037;28;20060;-56
2023/09/25 07:39:45;;;;;;;17.67;3.10;;;13.20;99.90;;;;;;5024130;28;20600;-56
2023/09/25 07:42:13;;;;;;;18.60;3.33;;;13.20;99.90;;;;;;5024404;28;20049;-56
2023/09/25 07:44:42;;;;;;;11.95;3.17;;;13.30;99.90;;;;;;5013586;28;20051;-55
2023/09/25 07:47:13;;;;;;;17.90;3.80;;;13.30;99.90;;;;;;5007652;28;20041;-56
2023/09/25 07:49:44;;;;;;;19.30;3.00;;;13.40;99.90;;;;;;5023154;28;20041;-55
2023/09/25 07:52:17;;;;;;;15.35;3.22;;;13.50;99.90;;;;;;5027128;28;20045;-55
2023/09/25 07:54:46;;;;;;;15.55;3.50;;;13.50;99.90;;;;;;5030033;28;20389;-55
2023/09/25 07:57:15;;;;;;;15.98;3.35;;;13.60;99.90;;;;;;5029088;28;20197;-56
2023/09/25 07:59:43;;;;;;;21.40;3.80;;;13.70;99.90;;;;;;5028402;28;20048;-56
2023/09/25 08:02:18;;;;;;;13.68;2.70;;;13.70;99.90;;;;;;5029995;28;20062;-56
2023/09/25 08:04:49;;;;;;;14.10;2.95;;;13.80;99.90;;;;;;5030533;28;20057;-57
2023/09/25 08:07:18;;;;;;;22.27;3.20;;;13.80;99.90;;;;;;5030419;28;20048;-56
2023/09/25 08:09:47;;;;;;;18.85;2.78;;;13.90;99.90;;;;;;5030282;28;20057;-57
2023/09/25 08:12:15;;;;;;;19.17;3.13;;;14.00;99.90;;;;;;5030389;28;20052;-56
2023/09/25 08:14:42;;;;;;;15.05;2.92;;;14.00;99.90;;;;;;5021019;28;20042;-56
2023/09/25 08:17:10;;;;;;;19.05;3.03;;;14.10;99.90;;;;;;5010416;28;20046;-56
2023/09/25 08:19:38;;;;;;;15.82;3.38;;;14.10;99.90;;;;;;5030225;28;20049;-56
2023/09/25 08:22:07;;;;;;;16.50;3.80;;;14.20;99.90;;;;;;5030314;28;20045;-57
2023/09/25 08:24:35;;;;;;;22.13;3.93;;;14.20;99.90;;;;;;5030321;28;20057;-57
2023/09/25 08:27:04;;;;;;;19.00;4.80;;;14.30;99.90;;;;;;5030321;28;20064;-56
2023/09/25 08:29:35;;;;;;;27.13;5.13;;;14.30;99.90;;;;;;5020754;28;20042;-58
2023/09/25 08:32:03;;;;;;;26.25;4.43;;;14.30;99.90;;;;;;5019569;28;20053;-57
2023/09/25 08:34:30;;;;;;;20.83;4.78;;;14.40;99.90;;;;;;5044480;28;20041;-57
2023/09/25 08:36:58;;;;;;;13.45;3.08;;;14.50;99.90;;;;;;5049839;28;20480;-57
2023/09/25 08:39:26;;;;;;;12.25;3.10;;;14.50;99.90;;;;;;5031680;28;20489;-56
2023/09/25 08:41:54;;;;;;;19.05;3.65;;;14.70;99.90;;;;;;5030051;28;20042;-57
2023/09/25 08:44:22;;;;;;;19.70;3.50;;;14.70;99.90;;;;;;5025168;28;20065;-56
2023/09/25 08:46:51;;;;;;;17.42;3.20;;;14.80;99.90;;;;;;5010162;28;20046;-56
2023/09/25 08:49:19;;;;;;;19.65;4.00;;;14.80;99.90;;;;;;5028142;28;20497;-56
2023/09/25 08:51:47;;;;;;;17.98;2.92;;;14.90;99.90;;;;;;5028424;28;20046;-56
2023/09/25 08:54:14;;;;;;;18.98;3.30;;;15.00;99.90;;;;;;5029371;28;20040;-55
2023/09/25 08:56:43;;;;;;;18.77;3.70;;;15.00;99.90;;;;;;5029796;28;20050;-56
2023/09/25 08:59:11;;;;;;;20.98;3.63;;;15.10;99.90;;;;;;5024933;28;20054;-56
2023/09/25 09:01:39;;;;;;;17.17;3.83;;;15.20;99.90;;;;;;5021841;28;20053;-56
2023/09/25 09:04:09;;;;;;;20.30;3.63;;;15.30;99.90;;;;;;5047338;28;20037;-56
2023/09/25 09:06:37;;;;;;;24.07;4.27;;;15.40;99.90;;;;;;5049482;28;20060;-56
2023/09/25 09:09:07;;;;;;;29.83;4.47;;;15.50;99.90;;;;;;5030920;28;20477;-56
2023/09/25 09:11:36;;;;;;;28.42;4.13;;;15.60;99.90;;;;;;5026252;28;20140;-56
2023/09/25 09:14:06;;;;;;;24.42;4.05;;;15.80;99.90;;;;;;5027196;28;20393;-57
2023/09/25 09:16:34;;;;;;;19.38;3.53;;;16.00;99.90;;;;;;5008336;28;20057;-56
2023/09/25 09:19:07;;;;;;;16.98;3.25;;;16.10;99.90;;;;;;5023773;28;20057;-56
2023/09/25 09:21:35;;;;;;;15.52;2.95;;;16.20;99.90;;;;;;5029187;28;20045;-56
2023/09/25 09:24:04;;;;;;;22.67;3.40;;;16.30;99.90;;;;;;5028795;28;20057;-56
2023/09/25 09:26:32;;;;;;;24.52;3.10;;;16.30;99.90;;;;;;5027868;28;20481;-56
2023/09/25 09:29:00;;;;;;;29.58;4.70;;;16.40;99.90;;;;;;5022914;28;20053;-56
2023/09/25 09:31:30;;;;;;;24.85;3.35;;;16.50;99.90;;;;;;4997195;28;20054;-56
2023/09/25 09:33:59;;;;;;;19.15;2.78;;;16.60;99.90;;;;;;5025915;28;20436;-57
2023/09/25 09:36:28;;;;;;;20.75;3.30;;;16.70;99.90;;;;;;5028883;28;20432;-56
2023/09/25 09:38:57;;;;;;;15.65;2.95;;;16.80;99.90;;;;;;5028447;28;20045;-56
2023/09/25 09:41:25;;;;;;;16.80;3.22;;;17.00;99.90;;;;;;5028990;28;20061;-57
2023/09/25 09:43:54;;;;;;;20.08;3.10;;;17.10;99.90;;;;;;5028813;28;20068;-57
2023/09/25 09:46:27;;;;;;;28.98;3.78;;;17.20;99.90;;;;;;5012146;28;20061;-56
2023/09/25 09:48:56;;;;;;;18.13;3.03;;;17.30;99.90;;;;;;5022049;28;20045;-56
2023/09/25 09:51:27;;;;;;;19.30;3.40;;;17.20;99.90;;;;;;5028856;28;20045;-56
2023/09/25 09:53:55;;;;;;;16.08;2.88;;;17.20;99.90;;;;;;5027992;28;20033;-56
2023/09/25 09:56:24;;;;;;;19.38;3.70;;;17.10;99.90;;;;;;5037735;28;20048;-56
2023/09/25 09:58:54;;;;;;;13.77;2.78;;;17.10;99.90;;;;;;5029625;28;20060;-56
2023/09/25 10:01:24;;;;;;;24.65;3.45;;;17.00;99.90;;;;;;5018697;28;20045;-56
2023/09/25 10:03:53;;;;;;;;;;;16.90;99.90;;;;;;5028517;28;20052;-56
2023/09/25 10:06:25;;;;;;;24.52;4.53;;;16.90;99.90;;;;;;5028323;28;19921;-56
2023/09/25 10:09:07;;;;;;;18.77;3.03;;;16.90;99.90;;;;;;5026877;28;20053;-56
2023/09/25 10:11:35;;;;;;;18.70;3.50;;;16.90;99.90;;;;;;5028514;28;20049;-56
2023/09/25 10:14:07;;;;;;;17.60;3.65;;;16.80;99.90;;;;;;5026782;28;20053;-56
2023/09/25 10:17:02;;;;;;;18.27;3.15;;;16.90;99.90;;;;;;5010711;28;20306;-56
2023/09/25 10:19:36;;;;;;;16.98;2.85;;;16.90;99.90;;;;;;5025595;28;20052;-56
2023/09/25 10:22:21;;;;;;;14.43;2.50;;;16.80;99.90;;;;;;5025465;28;20052;-56
2023/09/25 10:25:05;;;;;;;15.73;2.70;;;16.80;99.90;;;;;;5019957;28;20054;-56
2023/09/25 10:27:38;;;;;;;16.13;3.33;;;16.70;99.90;;;;;;5019943;28;20060;-56
2023/09/25 10:30:08;;;;;;;12.55;2.75;;;16.60;99.90;;;;;;5021265;28;20056;-56
2023/09/25 10:32:41;;;;;;;23.95;3.13;;;16.40;99.90;;;;;;5026564;28;20625;-55
2023/09/25 10:35:40;;;;;;;21.45;3.10;;;16.20;99.90;;;;;;5028429;28;20045;-55
2023/09/25 10:38:21;;;;;;;17.80;2.85;;;16.00;99.90;;;;;;5033140;28;20053;-58
2023/09/25 10:41:02;;;;;;;15.20;2.53;;;15.80;99.90;;;;;;5043426;28;20048;-55
2023/09/25 10:43:32;;;;;;;13.75;2.50;;;15.80;99.90;;;;;;5034350;28;20493;-56
2023/09/25 10:46:01;;;;;;;12.63;2.40;;;15.70;99.90;;;;;;5026346;28;20054;-56
2023/09/25 10:48:31;;;;;;;7.90;1.20;;;15.80;99.90;;;;;;5026947;28;20046;-55
2023/09/25 10:50:59;;;;;;;12.55;1.45;;;15.90;99.90;;;;;;5026699;28;20045;-57
2023/09/25 10:53:27;;;;;;;12.23;1.90;;;15.90;99.90;;;;;;5027332;28;20065;-58
2023/09/25 10:55:55;;;;;;;15.15;2.30;;;16.00;99.90;;;;;;5028133;28;20387;-58
2023/09/25 10:58:22;;;;;;;8.43;2.05;;;16.00;99.90;;;;;;5027407;28;20041;-57
2023/09/25 11:00:50;;;;;;;9.70;2.00;;;16.10;99.90;;;;;;5017825;28;20049;-59
2023/09/25 11:03:19;;;;;;;10.32;1.60;;;16.30;99.90;;;;;;5024824;28;20049;-56
2023/09/25 11:05:50;;;;;;;12.40;2.33;;;16.50;99.90;;;;;;5027454;28;20041;-56
2023/09/25 11:08:19;;;;;;;13.30;1.75;;;16.70;99.90;;;;;;5026688;28;20397;-56
2023/09/25 11:10:47;;;;;;;11.88;1.98;;;16.90;99.90;;;;;;5029661;28;20060;-56
2023/09/25 11:13:15;;;;;;;13.27;2.17;;;17.20;99.90;;;;;;5026437;28;20488;-57
2023/09/25 11:15:44;;;;;;;10.50;2.35;;;17.40;99.90;;;;;;5022449;28;20046;-58
2023/09/25 11:18:12;;;;;;;10.87;1.93;;;17.50;99.90;;;;;;5015022;28;20045;-58
2023/09/25 11:20:43;;;;;;;12.68;2.10;;;17.50;99.90;;;;;;5026979;28;20052;-58
2023/09/25 11:23:15;;;;;;;12.75;2.30;;;17.50;99.90;;;;;;5026031;28;20425;-58
2023/09/25 11:25:51;;;;;;;17.05;2.75;;;17.50;99.90;;;;;;5027754;28;20053;-58
2023/09/25 11:28:25;;;;;;;9.93;2.40;;;17.70;99.90;;;;;;5027407;28;20042;-58
2023/09/25 11:30:54;;;;;;;13.18;1.80;;;17.70;99.90;;;;;;5023161;28;20042;-59
2023/09/25 11:33:23;;;;;;;16.23;2.90;;;17.90;99.90;;;;;;5022924;28;20071;-58
2023/09/25 11:35:54;;;;;;;11.63;2.05;;;18.00;99.90;;;;;;5031285;28;20374;-58
2023/09/25 11:38:24;;;;;;;20.27;2.75;;;18.10;99.90;;;;;;5030858;28;20041;-59
2023/09/25 11:40:52;;;;;;;15.43;2.78;;;18.40;99.90;;;;;;5030695;28;20517;-59
2023/09/25 11:43:23;;;;;;;12.95;2.58;;;18.70;99.90;;;;;;5041725;28;20056;-58
2023/09/25 11:45:52;;;;;;;17.45;2.60;;;19.10;99.90;;;;;;5041864;28;20042;-58
2023/09/25 11:48:22;;;;;;;16.65;3.13;;;19.40;99.90;;;;;;5029607;28;20493;-58
2023/09/25 11:50:50;;;;;;;17.08;2.60;;;19.60;99.90;;;;;;5031068;28;20049;-58
2023/09/25 11:53:18;;;;;;;15.77;2.65;;;20.00;99.90;;;;;;5029535;28;20061;-58
2023/09/25 11:55:48;;;;;;;14.15;2.85;;;20.20;99.90;;;;;;5029156;28;20501;-58
2023/09/25 11:58:17;;;;;;;14.15;2.67;;;20.20;99.90;;;;;;5029658;28;20045;-58
2023/09/25 12:00:45;;;;;;;21.70;3.05;;;20.30;99.90;;;;;;5025769;28;21961;-58
2023/09/25 12:03:13;;;;;;;14.35;3.10;;;20.50;99.90;;;;;;5020905;28;20060;-58
2023/09/25 12:05:41;;;;;;;18.02;2.75;;;20.70;99.90;;;;;;5030937;28;20061;-58
2023/09/25 12:08:12;;;;;;;13.88;3.15;;;21.00;99.90;;;;;;5029933;28;20041;-58
2023/09/25 12:10:40;;;;;;;16.38;3.00;;;21.40;99.90;;;;;;5030386;28;20490;-58
2023/09/25 12:13:09;;;;;;;16.27;3.03;;;21.60;99.90;;;;;;5029083;28;20054;-58
2023/09/25 12:15:37;;;;;;;19.40;3.05;;;21.90;99.90;;;;;;5029023;28;20049;-58
2023/09/25 12:18:06;;;;;;;16.48;3.65;;;22.20;99.90;;;;;;5030083;28;20429;-58
2023/09/25 12:20:41;;;;;;;18.27;3.13;;;22.50;99.90;;;;;;5029556;28;20057;-57
2023/09/25 12:23:10;;;;;;;11.13;2.72;;;22.90;99.90;;;;;;5028583;28;20430;-58
2023/09/25 12:25:38;;;;;;;13.45;3.53;;;23.20;99.90;;;;;;5030449;28;20579;-58
2023/09/25 12:28:06;;;;;;;18.80;2.80;;;23.40;99.90;;;;;;5029030;28;20046;-59
2023/09/25 12:30:35;;;;;;;21.63;3.35;;;23.50;99.90;;;;;;5027175;28;20057;-58
2023/09/25 12:33:04;;;;;;;8.75;1.92;;;23.70;99.90;;;;;;5029968;28;20052;-59
2023/09/25 12:35:32;;;;;;;14.32;2.53;;;23.70;99.90;;;;;;5048692;28;20363;-60
2023/09/25 12:37:59;;;;;;;16.27;3.55;;;23.70;99.90;;;;;;5029190;28;20041;-59
2023/09/25 12:40:29;;;;;;;12.52;2.65;;;23.80;99.90;;;;;;5028656;28;20053;-58
2023/09/25 12:42:58;;;;;;;15.27;3.10;;;23.90;99.90;;;;;;5037088;28;20056;-58
2023/09/25 12:45:26;;;;;;;13.45;2.35;;;24.00;99.90;;;;;;5050071;28;20045;-59
2023/09/25 12:47:54;;;;;;;16.65;3.45;;;24.20;99.90;;;;;;5023156;28;20053;-59
2023/09/25 12:50:21;;;;;;;14.70;2.42;;;24.40;99.40;;;;;;5031511;28;20049;-59